createdAt,value
2016-12-22T00:00:05.838Z,72.43
2016-12-22T00:01:16.156Z,72.43
2016-12-22T00:02:26.176Z,72.43
2016-12-22T00:03:36.188Z,72.43
2016-12-22T00:04:46.506Z,72.71
2016-12-22T00:05:56.511Z,72.33
2016-12-22T00:07:06.528Z,72.43
2016-12-22T00:08:16.873Z,72.43
2016-12-22T00:09:26.878Z,72.52
2016-12-22T00:10:37.204Z,72.33
2016-12-22T00:11:47.215Z,72.33
2016-12-22T00:12:56.923Z,72.33
2016-12-22T00:14:07.254Z,72.43
2016-12-22T00:15:17.571Z,72.62
2016-12-22T00:16:27.901Z,72.62
2016-12-22T00:17:37.908Z,72.43
2016-12-22T00:18:47.905Z,72.62
2016-12-22T00:19:58.251Z,72.62
2016-12-22T00:21:08.582Z,72.52
2016-12-22T00:22:18.931Z,72.52
2016-12-22T00:23:29.301Z,72.71
2016-12-22T00:24:39.302Z,72.71
2016-12-22T00:25:49.310Z,72.52
2016-12-22T00:26:59.637Z,72.37
2016-12-22T00:28:09.967Z,72.62
2016-12-22T00:29:20.299Z,72.62
2016-12-22T00:30:30.612Z,72.43
2016-12-22T00:31:40.619Z,72.71
2016-12-22T00:32:50.930Z,72.62
2016-12-22T00:34:01.246Z,72.43
2016-12-22T00:35:11.572Z,72.62
2016-12-22T00:36:21.906Z,72.85
2016-12-22T00:37:31.611Z,72.66
2016-12-22T00:38:41.924Z,72.66
2016-12-22T00:39:52.245Z,72.52
2016-12-22T00:41:02.560Z,72.52
2016-12-22T00:42:12.893Z,72.33
2016-12-22T00:43:22.906Z,72.43
2016-12-22T00:44:33.227Z,72.56
2016-12-22T00:45:43.558Z,72.56
2016-12-22T00:46:53.566Z,72.75
2016-12-22T00:48:03.896Z,72.75
2016-12-22T00:49:14.214Z,72.66
2016-12-22T00:50:24.547Z,72.56
2016-12-22T00:51:34.563Z,72.47
2016-12-22T00:52:44.260Z,72.66
2016-12-22T00:53:54.266Z,72.85
2016-12-22T00:55:04.583Z,72.56
2016-12-22T00:56:14.600Z,72.66
2016-12-22T00:57:24.916Z,72.56
2016-12-22T00:58:34.922Z,72.47
2016-12-22T00:59:44.943Z,72.75
2016-12-22T01:00:55.256Z,72.66
2016-12-22T01:02:04.971Z,72.66
2016-12-22T01:03:15.295Z,72.85
2016-12-22T01:04:25.313Z,72.56
2016-12-22T01:05:35.623Z,72.85
2016-12-22T01:06:45.941Z,72.56
2016-12-22T01:07:55.954Z,72.66
2016-12-22T01:09:06.268Z,72.47
2016-12-22T01:10:15.970Z,72.56
2016-12-22T01:11:25.981Z,72.37
2016-12-22T01:12:35.990Z,72.75
2016-12-22T01:13:46.315Z,72.85
2016-12-22T01:14:56.689Z,72.75
2016-12-22T01:16:07.014Z,72.66
2016-12-22T01:17:17.020Z,72.47
2016-12-22T01:18:27.036Z,72.56
2016-12-22T01:19:37.032Z,72.47
2016-12-22T01:20:47.593Z,72.47
2016-12-22T01:21:57.917Z,72.47
2016-12-22T01:23:08.248Z,72.56
2016-12-22T01:24:18.569Z,72.85
2016-12-22T01:25:28.616Z,72.66
2016-12-22T01:26:38.940Z,72.66
2016-12-22T01:27:48.955Z,72.47
2016-12-22T01:28:58.955Z,72.28
2016-12-22T01:30:09.283Z,72.33
2016-12-22T01:31:19.303Z,72.37
2016-12-22T01:32:29.326Z,72.43
2016-12-22T01:33:39.639Z,72.52
2016-12-22T01:34:49.649Z,72.47
2016-12-22T01:35:59.976Z,72.33
2016-12-22T01:37:10.289Z,72.33
2016-12-22T01:38:20.615Z,72.33
2016-12-22T01:39:30.614Z,72.66
2016-12-22T01:40:40.636Z,72.62
2016-12-22T01:41:50.957Z,72.52
2016-12-22T01:43:00.983Z,72.24
2016-12-22T01:44:10.987Z,72.43
2016-12-22T01:45:20.691Z,72.33
2016-12-22T01:46:31.022Z,72.43
2016-12-22T01:47:41.034Z,72.62
2016-12-22T01:48:51.045Z,72.24
2016-12-22T01:50:01.063Z,72.33
2016-12-22T01:51:11.080Z,72.62
2016-12-22T01:52:21.402Z,72.43
2016-12-22T01:53:31.411Z,72.43
2016-12-22T01:54:41.724Z,72.52
2016-12-22T01:55:51.751Z,72.43
2016-12-22T01:57:01.762Z,72.52
2016-12-22T01:58:11.779Z,72.33
2016-12-22T01:59:21.162Z,72.43
2016-12-22T02:00:31.168Z,72.43
2016-12-22T02:01:41.504Z,72.43
2016-12-22T02:02:51.512Z,72.33
2016-12-22T02:04:01.842Z,72.24
2016-12-22T02:05:11.865Z,72.62
2016-12-22T02:06:22.227Z,72.71
2016-12-22T02:07:31.935Z,72.71
2016-12-22T02:08:42.254Z,72.71
2016-12-22T02:09:51.961Z,72.43
2016-12-22T02:11:01.977Z,72.43
2016-12-22T02:12:12.304Z,72.71
2016-12-22T02:13:22.626Z,72.43
2016-12-22T02:14:32.633Z,72.71
2016-12-22T02:15:42.956Z,72.71
2016-12-22T02:16:52.971Z,72.8
2016-12-22T02:18:03.285Z,72.33
2016-12-22T02:19:13.285Z,72.37
2016-12-22T02:20:22.978Z,72.75
2016-12-22T02:21:33.323Z,72.47
2016-12-22T02:22:43.034Z,72.47
2016-12-22T02:23:52.723Z,72.66
2016-12-22T02:25:03.053Z,72.66
2016-12-22T02:26:13.060Z,72.56
2016-12-22T02:27:23.078Z,72.66
2016-12-22T02:28:33.400Z,72.62
2016-12-22T02:29:43.090Z,72.62
2016-12-22T02:30:53.096Z,72.52
2016-12-22T02:32:03.397Z,72.62
2016-12-22T02:33:13.706Z,72.52
2016-12-22T02:34:23.718Z,72.52
2016-12-22T02:35:34.063Z,72.62
2016-12-22T02:36:44.380Z,72.33
2016-12-22T02:37:53.761Z,72.52
2016-12-22T02:39:04.083Z,72.71
2016-12-22T02:40:14.409Z,72.43
2016-12-22T02:41:24.418Z,72.24
2016-12-22T02:42:34.429Z,72.33
2016-12-22T02:43:44.511Z,72.62
2016-12-22T02:44:54.522Z,72.62
2016-12-22T02:46:04.222Z,72.43
2016-12-22T02:47:13.926Z,72.28
2016-12-22T02:48:24.206Z,72.66
2016-12-22T02:49:34.519Z,72.66
2016-12-22T02:50:44.829Z,72.56
2016-12-22T02:51:54.832Z,72.66
2016-12-22T02:53:04.854Z,72.75
2016-12-22T02:54:14.580Z,72.75
2016-12-22T02:55:24.335Z,72.85
2016-12-22T02:56:34.658Z,72.85
2016-12-22T02:57:44.665Z,72.47
2016-12-22T02:58:54.981Z,72.66
2016-12-22T03:00:05.307Z,72.66
2016-12-22T03:01:15.625Z,72.66
2016-12-22T03:32:44.095Z,69.49
2016-12-22T03:33:54.463Z,70.15
2016-12-22T03:35:04.451Z,71.37
2016-12-22T03:36:14.469Z,72.6
2016-12-22T03:37:24.770Z,73.17
2016-12-22T03:38:35.079Z,74.11
2016-12-22T03:39:45.399Z,74.71
2016-12-22T03:40:55.715Z,74.81
2016-12-22T03:42:06.023Z,74.81
2016-12-22T03:43:16.024Z,74.81
2016-12-22T03:44:26.042Z,74.71
2016-12-22T03:45:36.363Z,74.53
2016-12-22T03:46:46.373Z,74.95
2016-12-22T03:47:56.370Z,75.04
2016-12-22T03:49:06.382Z,74.47
2016-12-22T03:50:16.425Z,74.76
2016-12-22T03:51:26.737Z,74.28
2016-12-22T03:52:36.747Z,74.28
2016-12-22T03:53:46.468Z,73.9
2016-12-22T03:54:56.787Z,73.94
2016-12-22T03:56:06.817Z,73.66
2016-12-22T03:57:16.524Z,73.18
2016-12-22T03:58:26.249Z,73.28
2016-12-22T03:59:36.268Z,73.18
2016-12-22T04:00:46.603Z,73.56
2016-12-22T04:01:56.612Z,73.37
2016-12-22T04:03:06.623Z,73.47
2016-12-22T04:04:16.649Z,73.66
2016-12-22T04:05:26.656Z,73.56
2016-12-22T04:06:36.348Z,73.28
2016-12-22T04:07:46.658Z,73.18
2016-12-22T04:08:56.975Z,73.47
2016-12-22T04:10:06.977Z,73.56
2016-12-22T04:11:16.990Z,73.47
2016-12-22T04:12:27.034Z,73.09
2016-12-22T04:13:37.036Z,73.28
2016-12-22T04:14:47.040Z,73.37
2016-12-22T04:15:57.046Z,73.09
2016-12-22T04:17:07.057Z,72.9
2016-12-22T04:18:16.759Z,73.09
2016-12-22T04:19:27.072Z,72.99
2016-12-22T04:20:37.114Z,73.09
2016-12-22T04:21:47.144Z,73.09
2016-12-22T04:22:57.500Z,72.9
2016-12-22T04:24:07.197Z,73.09
2016-12-22T04:25:17.570Z,72.99
2016-12-22T04:26:27.576Z,72.99
2016-12-22T04:27:37.579Z,73.09
2016-12-22T04:28:47.585Z,72.99
2016-12-22T04:29:57.907Z,72.99
2016-12-22T04:31:07.908Z,72.8
2016-12-22T04:32:17.923Z,72.9
2016-12-22T04:33:27.926Z,72.62
2016-12-22T04:34:37.633Z,73.09
2016-12-22T04:35:47.946Z,73.28
2016-12-22T04:36:58.260Z,72.99
2016-12-22T04:38:07.958Z,73.28
2016-12-22T04:39:17.956Z,73.28
2016-12-22T04:40:27.656Z,72.71
2016-12-22T04:41:37.674Z,72.99
2016-12-22T04:42:47.999Z,72.99
2016-12-22T04:43:57.701Z,72.62
2016-12-22T04:45:07.709Z,72.71
2016-12-22T04:46:17.716Z,72.99
2016-12-22T04:47:27.103Z,72.9
2016-12-22T04:48:37.411Z,72.9
2016-12-22T04:49:47.103Z,72.52
2016-12-22T04:50:57.127Z,72.62
2016-12-22T04:52:07.133Z,72.52
2016-12-22T04:53:16.544Z,73.09
2016-12-22T04:54:26.867Z,73.09
2016-12-22T04:55:36.558Z,72.71
2016-12-22T04:56:46.571Z,72.43
2016-12-22T04:57:56.558Z,72.33
2016-12-22T04:59:06.263Z,72.43
2016-12-22T05:00:16.016Z,72.33
2016-12-22T05:01:25.713Z,72.43
2016-12-22T05:02:35.720Z,72.62
2016-12-22T05:03:45.742Z,72.43
2016-12-22T05:04:55.441Z,72.43
2016-12-22T05:06:05.760Z,73.28
2016-12-22T05:07:15.786Z,72.99
2016-12-22T05:08:25.182Z,72.62
2016-12-22T05:09:35.492Z,73.09
2016-12-22T05:10:45.511Z,72.52
2016-12-22T05:11:55.519Z,72.43
2016-12-22T05:13:05.530Z,72.43
2016-12-22T05:14:15.538Z,72.43
2016-12-22T05:15:25.239Z,72.43
2016-12-22T05:16:34.934Z,72.43
2016-12-22T05:17:45.275Z,72.43
2016-12-22T05:18:55.592Z,72.43
2016-12-22T05:20:05.607Z,72.43
2016-12-22T05:21:15.636Z,72.71
2016-12-22T05:22:25.643Z,72.62
2016-12-22T05:23:35.980Z,72.33
2016-12-22T05:24:46.306Z,72.43
2016-12-22T05:25:56.307Z,72.33
2016-12-22T05:27:06.644Z,72.43
2016-12-22T05:28:16.963Z,72.52
2016-12-22T05:29:26.980Z,72.62
2016-12-22T05:30:37.298Z,72.33
2016-12-22T05:31:47.297Z,72.33
2016-12-22T05:32:57.305Z,72.43
2016-12-22T05:34:07.607Z,72.33
2016-12-22T05:35:17.601Z,72.33
2016-12-22T05:36:26.999Z,72.71
2016-12-22T05:37:36.706Z,72.43
2016-12-22T05:38:46.726Z,72.43
2016-12-22T05:39:57.035Z,72.43
2016-12-22T05:41:06.790Z,72.43
2016-12-22T05:42:16.797Z,72.33
2016-12-22T05:43:26.824Z,72.62
2016-12-22T05:44:36.845Z,72.43
2016-12-22T05:45:46.854Z,72.37
2016-12-22T05:46:56.559Z,72.33
2016-12-22T05:48:06.881Z,72.56
2016-12-22T05:49:16.253Z,72.56
2016-12-22T05:50:26.291Z,72.66
2016-12-22T05:51:36.328Z,72.66
2016-12-22T05:52:46.653Z,72.66
2016-12-22T05:53:56.349Z,72.85
2016-12-22T05:55:06.721Z,72.66
2016-12-22T05:56:16.419Z,72.75
2016-12-22T05:57:26.749Z,72.85
2016-12-22T05:58:36.781Z,72.75
2016-12-22T05:59:47.098Z,72.28
2016-12-22T06:00:57.426Z,72.71
2016-12-22T06:02:07.461Z,72.43
2016-12-22T06:03:17.509Z,72.37
2016-12-22T06:04:27.524Z,72.33
2016-12-22T06:05:37.846Z,72.52
2016-12-22T06:06:48.168Z,72.66
2016-12-22T06:07:58.480Z,72.62
2016-12-22T06:09:08.497Z,72.43
2016-12-22T06:10:18.823Z,72.43
2016-12-22T06:11:28.847Z,72.75
2016-12-22T06:12:39.161Z,72.62
2016-12-22T06:13:49.479Z,72.43
2016-12-22T06:14:59.181Z,72.24
2016-12-22T06:16:09.503Z,72.43
2016-12-22T06:17:19.503Z,72.66
2016-12-22T06:18:29.817Z,72.75
2016-12-22T06:19:40.134Z,72.75
2016-12-22T06:20:50.154Z,72.75
2016-12-22T06:22:00.470Z,72.66
2016-12-22T06:23:10.472Z,72.47
2016-12-22T06:24:20.478Z,72.85
2016-12-22T06:25:30.795Z,72.66
2016-12-22T06:26:40.813Z,72.52
2016-12-22T06:27:51.129Z,72.43
2016-12-22T06:29:01.128Z,72.43
2016-12-22T06:30:11.138Z,72.33
2016-12-22T06:31:20.844Z,72.43
2016-12-22T06:32:30.856Z,72.47
2016-12-22T06:33:40.859Z,72.33
2016-12-22T06:34:51.180Z,72.43
2016-12-22T06:36:01.188Z,72.56
2016-12-22T06:37:10.893Z,72.37
2016-12-22T06:38:21.215Z,72.66
2016-12-22T06:39:31.229Z,72.75
2016-12-22T06:40:41.544Z,72.66
2016-12-22T06:41:51.864Z,72.47
2016-12-22T06:43:01.877Z,72.66
2016-12-22T06:44:12.198Z,72.47
2016-12-22T06:45:22.513Z,72.47
2016-12-22T06:46:32.204Z,72.66
2016-12-22T06:47:42.524Z,72.47
2016-12-22T06:48:52.541Z,72.66
2016-12-22T06:50:02.863Z,72.85
2016-12-22T06:51:12.861Z,72.56
2016-12-22T06:52:22.550Z,72.66
2016-12-22T06:53:32.568Z,72.47
2016-12-22T06:54:42.889Z,72.66
2016-12-22T06:55:52.586Z,72.56
2016-12-22T06:57:02.297Z,72.47
2016-12-22T06:58:12.625Z,72.37
2016-12-22T06:59:22.670Z,72.47
2016-12-22T07:00:32.679Z,72.37
2016-12-22T07:01:42.995Z,72.43
2016-12-22T07:02:53.327Z,72.47
2016-12-22T07:04:03.672Z,72.33
2016-12-22T07:05:13.689Z,72.43
2016-12-22T07:06:23.696Z,72.43
2016-12-22T07:07:32.770Z,72.43
2016-12-22T07:08:42.783Z,72.37
2016-12-22T07:09:53.038Z,72.43
2016-12-22T07:11:03.044Z,72.43
2016-12-22T07:12:13.058Z,72.62
2016-12-22T07:13:22.762Z,72.62
2016-12-22T07:14:32.772Z,72.99
2016-12-22T07:15:42.779Z,72.8
2016-12-22T07:16:52.792Z,72.52
2016-12-22T07:18:02.500Z,72.62
2016-12-22T07:19:12.816Z,72.43
2016-12-22T07:20:22.525Z,72.33
2016-12-22T07:21:32.859Z,72.33
2016-12-22T07:22:43.165Z,72.33
2016-12-22T07:23:53.202Z,72.52
2016-12-22T07:25:03.211Z,72.62
2016-12-22T07:26:13.535Z,72.43
2016-12-22T07:27:23.552Z,72.62
2016-12-22T07:28:33.269Z,72.8
2016-12-22T07:29:43.281Z,72.52
2016-12-22T07:30:52.981Z,72.71
2016-12-22T07:32:03.323Z,72.62
2016-12-22T07:33:13.631Z,72.33
2016-12-22T07:34:23.652Z,72.62
2016-12-22T07:35:33.966Z,72.24
2016-12-22T07:36:43.985Z,72.43
2016-12-22T07:37:54.312Z,72.33
2016-12-22T07:39:04.008Z,72.52
2016-12-22T07:40:14.016Z,72.62
2016-12-22T07:41:23.741Z,72.52
2016-12-22T07:42:33.449Z,72.71
2016-12-22T07:43:43.473Z,72.52
2016-12-22T07:44:53.477Z,72.8
2016-12-22T07:46:03.490Z,72.47
2016-12-22T07:47:13.807Z,72.66
2016-12-22T07:48:23.819Z,72.47
2016-12-22T07:49:34.153Z,72.66
2016-12-22T07:50:44.174Z,72.66
2016-12-22T07:51:54.483Z,72.56
2016-12-22T07:53:04.805Z,72.66
2016-12-22T07:54:14.520Z,72.75
2016-12-22T07:55:24.566Z,72.85
2016-12-22T07:56:34.886Z,72.66
2016-12-22T07:57:44.949Z,72.66
2016-12-22T07:58:55.011Z,72.66
2016-12-22T08:00:04.709Z,72.56
2016-12-22T08:01:14.719Z,72.85
2016-12-22T08:02:25.042Z,73.03
2016-12-22T08:03:35.058Z,72.75
2016-12-22T08:04:45.375Z,72.66
2016-12-22T08:05:55.391Z,72.85
2016-12-22T08:07:05.740Z,72.66
2016-12-22T08:08:16.068Z,72.66
2016-12-22T08:09:26.086Z,72.47
2016-12-22T08:10:35.803Z,72.47
2016-12-22T08:11:46.123Z,72.56
2016-12-22T08:12:56.162Z,72.56
2016-12-22T08:14:06.492Z,72.66
2016-12-22T08:15:16.490Z,72.47
2016-12-22T08:16:26.216Z,72.85
2016-12-22T08:17:36.221Z,72.66
2016-12-22T08:18:46.545Z,72.66
2016-12-22T08:19:56.549Z,72.94
2016-12-22T08:21:06.252Z,72.66
2016-12-22T08:22:16.269Z,72.66
2016-12-22T08:23:26.282Z,72.94
2016-12-22T08:24:36.305Z,72.75
2016-12-22T08:25:46.328Z,73.03
2016-12-22T08:26:56.331Z,72.56
2016-12-22T08:28:06.334Z,72.75
2016-12-22T08:29:16.377Z,72.37
2016-12-22T08:30:26.694Z,72.18
2016-12-22T08:31:37.035Z,72.47
2016-12-22T08:32:47.032Z,72.37
2016-12-22T08:33:57.047Z,72.37
2016-12-22T08:35:06.742Z,72.37
2016-12-22T08:36:17.059Z,72.37
2016-12-22T08:37:27.388Z,72.09
2016-12-22T08:38:37.737Z,72.37
2016-12-22T08:39:48.037Z,72.28
2016-12-22T08:40:58.364Z,72.66
2016-12-22T08:42:08.069Z,72.47
2016-12-22T08:43:17.771Z,72.18
2016-12-22T08:44:27.787Z,71.9
2016-12-22T08:45:37.799Z,72.37
2016-12-22T08:46:47.499Z,72.66
2016-12-22T08:47:57.821Z,72.66
2016-12-22T08:49:08.135Z,72.66
2016-12-22T08:50:17.830Z,72.85
2016-12-22T08:51:27.877Z,72.75
2016-12-22T08:52:38.224Z,72.94
2016-12-22T08:53:48.549Z,72.66
2016-12-22T08:54:58.903Z,72.66
2016-12-22T08:56:09.226Z,72.94
2016-12-22T08:57:19.549Z,72.56
2016-12-22T08:58:29.872Z,72.66
2016-12-22T08:59:40.199Z,72.28
2016-12-22T09:00:50.521Z,72.28
2016-12-22T09:02:00.551Z,72.66
2016-12-22T09:03:10.559Z,72.18
2016-12-22T09:04:20.585Z,72.18
2016-12-22T09:05:30.605Z,72.56
2016-12-22T09:06:40.622Z,72.37
2016-12-22T09:07:50.626Z,72.66
2016-12-22T09:09:00.667Z,72.37
2016-12-22T09:10:10.356Z,72.37
2016-12-22T09:11:20.412Z,72.37
2016-12-22T09:12:30.423Z,72.18
2016-12-22T09:13:40.140Z,72.37
2016-12-22T09:14:50.457Z,72.37
2016-12-22T09:16:00.478Z,72.47
2016-12-22T09:17:10.487Z,72.66
2016-12-22T09:20:20.702Z,72.18
2016-12-22T09:23:23.450Z,72.37
2016-12-22T09:24:33.450Z,72.37
2016-12-22T09:25:43.467Z,72.56
2016-12-22T09:26:53.784Z,72.37
2016-12-22T09:28:04.103Z,72.66
2016-12-22T09:29:14.417Z,72.66
2016-12-22T09:30:24.435Z,72.28
2016-12-22T09:31:34.447Z,72.56
2016-12-22T09:32:44.452Z,72.47
2016-12-22T09:33:54.780Z,72.85
2016-12-22T09:35:04.488Z,72.37
2016-12-22T09:36:14.808Z,71.8
2016-12-22T09:37:24.811Z,72.37
2016-12-22T09:38:34.838Z,71.9
2016-12-22T09:39:44.541Z,72.18
2016-12-22T09:40:54.856Z,72.09
2016-12-22T09:42:05.182Z,72.28
2016-12-22T09:43:15.514Z,71.9
2016-12-22T09:44:25.231Z,72.37
2016-12-22T09:45:34.928Z,72.37
2016-12-22T09:46:44.987Z,72.09
2016-12-22T09:47:54.695Z,71.9
2016-12-22T09:49:04.394Z,72.09
2016-12-22T09:50:14.100Z,72.09
2016-12-22T09:51:24.112Z,72.09
2016-12-22T09:52:34.120Z,72.37
2016-12-22T09:53:44.145Z,72.28
2016-12-22T09:54:54.491Z,72.28
2016-12-22T09:56:04.548Z,72.09
2016-12-22T09:57:14.875Z,72.47
2016-12-22T09:58:25.197Z,72.18
2016-12-22T09:59:35.215Z,72.18
2016-12-22T10:00:45.248Z,72.28
2016-12-22T10:01:54.952Z,72.18
2016-12-22T10:03:04.989Z,72.37
2016-12-22T10:04:15.005Z,71.9
2016-12-22T10:05:24.715Z,71.9
2016-12-22T10:06:35.041Z,72.85
2016-12-22T10:07:45.378Z,72.28
2016-12-22T10:08:55.657Z,72.28
2016-12-22T10:10:05.690Z,72.09
2016-12-22T10:11:16.021Z,72.47
2016-12-22T10:12:26.358Z,71.99
2016-12-22T10:13:36.370Z,72.47
2016-12-22T10:14:46.702Z,71.8
2016-12-22T10:15:56.712Z,72.09
2016-12-22T10:17:06.736Z,71.8
2016-12-22T10:18:17.059Z,72.37
2016-12-22T10:19:26.805Z,71.9
2016-12-22T10:20:36.495Z,72.85
2016-12-22T10:21:46.215Z,72.28
2016-12-22T10:22:56.226Z,72.18
2016-12-22T10:24:06.557Z,72.28
2016-12-22T10:25:16.879Z,72.37
2016-12-22T10:26:27.204Z,71.9
2016-12-22T10:27:37.212Z,71.9
2016-12-22T10:28:47.233Z,71.9
2016-12-22T10:29:57.565Z,72.47
2016-12-22T10:31:06.961Z,71.93
2016-12-22T10:32:17.041Z,72.12
2016-12-22T10:33:27.371Z,72.41
2016-12-22T10:34:37.394Z,72.5
2016-12-22T10:35:47.413Z,72.03
2016-12-22T10:36:57.479Z,72.22
2016-12-22T10:38:07.945Z,72.41
2016-12-22T10:39:17.767Z,72.31
2016-12-22T10:40:28.199Z,72.31
2016-12-22T10:41:38.230Z,72.6
2016-12-22T10:42:48.287Z,72.6
2016-12-22T10:43:58.354Z,72.5
2016-12-22T10:45:08.730Z,72.31
2016-12-22T10:46:18.522Z,72.12
2016-12-22T10:47:28.614Z,72.22
2016-12-22T10:48:39.043Z,71.93
2016-12-22T10:49:49.212Z,72.6
2016-12-22T10:50:59.615Z,72.78
2016-12-22T10:52:09.710Z,72.69
2016-12-22T10:53:19.794Z,72.6
2016-12-22T10:54:29.864Z,72.22
2016-12-22T10:55:39.931Z,72.12
2016-12-22T10:56:50.333Z,71.93
2016-12-22T10:58:00.740Z,72.41
2016-12-22T10:59:10.547Z,71.84
2016-12-22T11:00:20.618Z,71.93
2016-12-22T11:01:30.634Z,72.12
2016-12-22T11:02:40.960Z,72.31
2016-12-22T11:03:51.281Z,72.5
2016-12-22T11:05:00.983Z,72.5
2016-12-22T11:06:11.297Z,72.5
2016-12-22T11:07:21.301Z,72.5
2016-12-22T11:08:31.318Z,72.6
2016-12-22T11:09:41.636Z,72.6
2016-12-22T11:10:51.964Z,72.6
2016-12-22T11:12:01.973Z,72.69
2016-12-22T11:13:11.980Z,71.74
2016-12-22T11:14:22.306Z,71.69
2016-12-22T11:15:32.644Z,71.78
2016-12-22T11:16:42.641Z,72.73
2016-12-22T11:17:52.347Z,72.44
2016-12-22T11:19:02.661Z,72.44
2016-12-22T11:20:13.009Z,72.44
2016-12-22T11:21:23.347Z,72.63
2016-12-22T11:22:33.363Z,72.53
2016-12-22T11:23:43.725Z,72.31
2016-12-22T11:24:53.114Z,72.25
2016-12-22T11:26:03.164Z,72.22
2016-12-22T11:27:28.071Z,72.25
2016-12-22T11:28:37.803Z,72.31
2016-12-22T11:29:47.821Z,72.5
2016-12-22T11:30:57.832Z,72.41
2016-12-22T11:32:08.148Z,72.12
2016-12-22T11:33:17.838Z,72.41
2016-12-22T11:34:27.841Z,72.88
2016-12-22T11:35:37.553Z,72.41
2016-12-22T11:36:47.574Z,72.6
2016-12-22T11:37:57.602Z,72.6
2016-12-22T11:39:07.611Z,72.22
2016-12-22T11:40:17.322Z,72.41
2016-12-22T11:41:27.648Z,72.41
2016-12-22T11:42:37.664Z,72.88
2016-12-22T11:43:47.411Z,72.12
2016-12-22T11:44:57.730Z,71.93
2016-12-22T11:46:08.099Z,72.41
2016-12-22T11:47:18.422Z,72.5
2016-12-22T11:48:28.431Z,72.31
2016-12-22T11:49:38.809Z,72.12
2016-12-22T11:50:49.143Z,72.22
2016-12-22T11:51:59.472Z,72.22
2016-12-22T11:53:09.484Z,72.31
2016-12-22T11:54:19.226Z,72.5
2016-12-22T11:55:29.543Z,71.93
2016-12-22T11:56:39.574Z,72.22
2016-12-22T11:57:49.900Z,72.31
2016-12-22T11:58:59.917Z,72.12
2016-12-22T12:00:10.248Z,72.41
2016-12-22T12:01:20.267Z,72.22
2016-12-22T12:02:30.298Z,71.93
2016-12-22T12:03:40.634Z,72.03
2016-12-22T12:04:50.976Z,72.41
2016-12-22T12:06:01.295Z,72.03
2016-12-22T12:07:11.645Z,72.22
2016-12-22T12:08:21.966Z,72.31
2016-12-22T12:09:31.974Z,72.41
2016-12-22T12:10:42.304Z,72.22
2016-12-22T12:11:51.388Z,71.93
2016-12-22T12:13:01.093Z,72.5
2016-12-22T12:14:11.101Z,72.41
2016-12-22T12:15:21.430Z,72.41
2016-12-22T12:16:31.735Z,71.93
2016-12-22T12:17:41.461Z,72.88
2016-12-22T12:18:51.794Z,71.93
2016-12-22T12:20:02.154Z,72.5
2016-12-22T12:21:12.172Z,72.22
2016-12-22T12:22:22.227Z,72.97
2016-12-22T12:23:32.534Z,71.74
2016-12-22T12:24:42.545Z,71.93
2016-12-22T12:25:52.553Z,71.93
2016-12-22T12:27:02.564Z,71.93
2016-12-22T12:28:11.950Z,72.78
2016-12-22T12:29:21.657Z,72.5
2016-12-22T12:30:31.676Z,72.22
2016-12-22T12:31:41.705Z,72.12
2016-12-22T12:32:51.713Z,71.93
2016-12-22T12:34:02.039Z,71.93
2016-12-22T12:35:11.772Z,71.93
2016-12-22T12:36:21.782Z,71.93
2016-12-22T12:37:31.845Z,71.93
2016-12-22T12:38:41.870Z,72.41
2016-12-22T12:39:51.888Z,72.12
2016-12-22T12:41:02.214Z,72.22
2016-12-22T12:42:12.551Z,72.5
2016-12-22T12:43:22.895Z,72.41
2016-12-22T12:44:32.906Z,72.31
2016-12-22T12:45:43.227Z,71.84
2016-12-22T12:46:53.245Z,71.93
2016-12-22T12:48:03.567Z,71.93
2016-12-22T12:49:13.590Z,72.41
2016-12-22T12:50:23.619Z,72.22
2016-12-22T12:51:33.324Z,72.22
2016-12-22T12:52:43.645Z,72.5
2016-12-22T12:53:53.693Z,72.6
2016-12-22T12:55:03.715Z,72.31
2016-12-22T12:56:13.416Z,72.22
2016-12-22T12:57:23.734Z,72.69
2016-12-22T12:58:34.057Z,72.31
2016-12-22T12:59:44.056Z,72.5
2016-12-22T13:00:54.093Z,72.5
2016-12-22T13:02:04.432Z,72.22
2016-12-22T13:03:14.461Z,72.22
2016-12-22T13:04:24.483Z,72.6
2016-12-22T13:05:34.813Z,72.69
2016-12-22T13:06:44.901Z,72.69
2016-12-22T13:07:55.224Z,72.69
2016-12-22T13:09:05.246Z,72.97
2016-12-22T13:10:15.575Z,73.07
2016-12-22T13:11:25.888Z,72.69
2016-12-22T13:12:35.900Z,72.5
2016-12-22T13:13:45.597Z,72.69
2016-12-22T13:14:55.917Z,72.88
2016-12-22T13:16:05.921Z,72.88
2016-12-22T13:17:16.246Z,72.69
2016-12-22T13:18:25.637Z,72.78
2016-12-22T13:19:35.647Z,72.88
2016-12-22T13:20:45.965Z,72.69
2016-12-22T13:21:55.980Z,72.69
2016-12-22T13:23:05.987Z,72.88
2016-12-22T13:24:16.303Z,72.69
2016-12-22T13:25:26.633Z,72.69
2016-12-22T13:26:36.379Z,72.88
2016-12-22T13:27:46.386Z,72.69
2016-12-22T13:28:56.712Z,72.6
2016-12-22T13:30:06.471Z,72.6
2016-12-22T13:31:16.801Z,72.69
2016-12-22T13:32:26.525Z,72.6
2016-12-22T13:33:36.865Z,72.31
2016-12-22T13:34:46.881Z,72.6
2016-12-22T13:35:57.437Z,72.31
2016-12-22T13:37:07.460Z,72.69
2016-12-22T13:38:17.467Z,72.85
2016-12-22T13:39:27.798Z,72.88
2016-12-22T13:40:37.823Z,72.88
2016-12-22T13:41:47.524Z,72.94
2016-12-22T13:42:57.533Z,72.75
2016-12-22T13:44:07.578Z,72.5
2016-12-22T13:45:17.605Z,72.69
2016-12-22T13:46:27.623Z,72.88
2016-12-22T13:47:37.344Z,72.85
2016-12-22T13:48:46.743Z,72.88
2016-12-22T13:49:56.773Z,72.5
2016-12-22T13:51:06.852Z,72.69
2016-12-22T13:52:17.196Z,72.69
2016-12-22T13:53:27.538Z,72.69
2016-12-22T13:54:37.235Z,72.56
2016-12-22T13:55:47.611Z,72.47
2016-12-22T13:56:57.922Z,72.5
2016-12-22T13:58:08.253Z,72.47
2016-12-22T13:59:18.003Z,72.75
2016-12-22T14:00:27.742Z,72.85
2016-12-22T14:01:37.784Z,72.47
2016-12-22T14:02:47.503Z,72.75
2016-12-22T14:03:57.822Z,72.47
2016-12-22T14:05:08.141Z,72.47
2016-12-22T14:06:18.146Z,72.56
2016-12-22T14:07:28.161Z,72.37
2016-12-22T14:08:38.179Z,72.56
2016-12-22T14:09:48.505Z,72.28
2016-12-22T14:10:58.842Z,72.47
2016-12-22T14:12:09.170Z,72.47
2016-12-22T14:13:19.181Z,72.47
2016-12-22T14:14:29.217Z,72.66
2016-12-22T14:15:38.927Z,72.47
2016-12-22T14:16:48.934Z,72.37
2016-12-22T14:17:58.674Z,72.47
2016-12-22T14:19:08.366Z,72.37
2016-12-22T14:20:18.685Z,72.47
2016-12-22T14:21:28.694Z,72.47
2016-12-22T14:22:38.463Z,72.37
2016-12-22T14:23:48.474Z,72.56
2016-12-22T14:24:58.499Z,72.47
2016-12-22T14:26:08.197Z,72.47
2016-12-22T14:27:18.222Z,72.56
2016-12-22T14:28:28.559Z,72.37
2016-12-22T14:29:38.260Z,72.47
2016-12-22T14:30:48.002Z,72.47
2016-12-22T14:31:58.017Z,72.37
2016-12-22T14:33:08.347Z,72.37
2016-12-22T14:34:18.348Z,72.47
2016-12-22T14:35:28.375Z,72.47
2016-12-22T14:36:38.382Z,72.66
2016-12-22T14:37:48.737Z,72.37
2016-12-22T14:38:59.058Z,72.37
2016-12-22T14:40:08.761Z,72.47
2016-12-22T14:41:19.087Z,72.66
2016-12-22T14:42:28.783Z,72.66
2016-12-22T14:43:39.123Z,72.66
2016-12-22T14:44:48.831Z,72.37
2016-12-22T14:45:59.176Z,72.47
2016-12-22T14:47:08.598Z,72.47
2016-12-22T14:48:18.633Z,72.47
2016-12-22T14:49:29.033Z,72.47
2016-12-22T14:50:39.045Z,72.47
2016-12-22T14:51:48.784Z,72.66
2016-12-22T14:52:58.807Z,72.56
2016-12-22T14:54:08.862Z,72.47
2016-12-22T14:55:18.918Z,72.75
2016-12-22T14:56:29.300Z,72.47
2016-12-22T14:57:39.337Z,72.47
2016-12-22T14:58:49.374Z,72.66
2016-12-22T14:59:59.423Z,72.37
2016-12-22T15:01:09.819Z,72.56
2016-12-22T15:02:20.163Z,72.37
2016-12-22T15:03:30.202Z,72.37
2016-12-22T15:04:40.220Z,72.37
2016-12-22T15:05:50.634Z,72.47
2016-12-22T15:07:01.006Z,72.47
2016-12-22T15:08:11.047Z,72.47
2016-12-22T15:09:21.180Z,72.56
2016-12-22T15:10:31.559Z,72.47
2016-12-22T15:11:41.591Z,72.47
2016-12-22T15:12:51.948Z,72.75
2016-12-22T15:14:01.996Z,72.37
2016-12-22T15:15:11.771Z,72.75
2016-12-22T15:16:22.191Z,72.47
2016-12-22T15:17:32.534Z,72.47
2016-12-22T15:18:43.132Z,72.75
2016-12-22T15:19:53.524Z,72.47
2016-12-22T15:21:03.881Z,72.56
2016-12-22T15:22:13.912Z,72.28
2016-12-22T15:23:23.937Z,72.56
2016-12-22T15:24:34.360Z,72.28
2016-12-22T15:25:44.422Z,72.75
2016-12-22T15:26:54.474Z,72.37
2016-12-22T15:28:04.840Z,72.47
2016-12-22T15:29:14.888Z,72.75
2016-12-22T15:30:24.913Z,72.47
2016-12-22T15:31:35.009Z,72.66
2016-12-22T15:32:45.349Z,72.66
2016-12-22T15:33:55.679Z,72.37
2016-12-22T15:35:05.396Z,72.47
2016-12-22T15:36:15.781Z,72.47
2016-12-22T15:37:26.023Z,72.28
2016-12-22T15:38:36.369Z,72.75